Overview Statistics Trail Chart Weather Telemetry Raw packets
 

This is the latest recevied weather packets stored in our database for station/object S57PNX-8. If no packets are shown the sender has not sent any weather packets the latest 10 day(s).

<< 26 27 28 29 30 31 32 >>
Time Temp. Humidity Pressure Rain* Wind** Luminosity Snow
1788120158 22.78° C 57% 1022.9 hPa - - - -
1788119257 23.33° C 57% 1022.9 hPa - - - -
1788118359 23.33° C 56% 1022.8 hPa - - - -
1788117507 23.89° C 55% 1022.8 hPa - - - -
1788116607 23.89° C 53% 1022.8 hPa - - - -
1788115708 24.44° C 53% 1022.8 hPa - - - -
1788114809 24.44° C 52% 1022.8 hPa - - - -
1788113910 25° C 51% 1022.7 hPa - - - -
1788113011 25.56° C 51% 1022.5 hPa - - - -
1788112111 26.67° C 49% 1022.4 hPa - - - -
1788111213 27.22° C 47% 1022.4 hPa - - - -
1788110313 28.33° C 44% 1022.3 hPa - - - -
1788109415 29.44° C 41% 1022.4 hPa - - - -
1788108515 31.11° C 37% 1022.5 hPa - - - -
1788107616 32.22° C 35% 1022.4 hPa - - - -
1788106717 34.44° C 32% 1022.4 hPa - - - -
1788105818 33.33° C 33% 1022.6 hPa - - - -
1788104919 33.89° C 33% 1022.5 hPa - - - -
1788104020 32.22° C 37% 1022.5 hPa - - - -
1788103120 30° C 43% 1022.6 hPa - - - -
1788102221 28.89° C 45% 1022.6 hPa - - - -
1788101322 27.22° C 49% 1022.6 hPa - - - -
1788100422 27.22° C 50% 1022.7 hPa - - - -
1788099523 26.67° C 51% 1022.8 hPa - - - -
1788098624 26.67° C 51% 1022.9 hPa - - - -

* Rain since midnight (hover to see other rain measurements)
** Current wind speed in m/s (hover to see current wind gust speed)